Time;durP1;ratioP1;P1;durP2;ratioP2;P2;SDS_P1;SDS_P2;PMS_P1;PMS_P2;Temp;Humidity;BMP_temperature;BMP_pressure;BME280_temperature;BME280_humidity;BME280_pressure;Samples;Min_cycle;Max_cycle;Signal;HPM_P1;HPM_P2
2023/10/27 00:02:04;;;;;;;30.63;12.68;;;11.60;99.90;;;;;;5017750;28;20022;-67
2023/10/27 00:04:29;;;;;;;29.90;12.63;;;11.60;99.90;;;;;;5017949;28;20022;-67
2023/10/27 00:06:55;;;;;;;34.10;13.10;;;11.60;99.90;;;;;;5018392;28;20032;-67
2023/10/27 00:09:20;;;;;;;33.25;13.63;;;11.60;99.90;;;;;;5018280;28;20018;-67
2023/10/27 00:11:46;;;;;;;27.35;11.82;;;11.60;99.90;;;;;;5017279;28;20036;-67
2023/10/27 00:14:11;;;;;;;21.95;10.35;;;11.50;99.90;;;;;;5018385;28;20028;-67
2023/10/27 00:16:37;;;;;;;27.10;10.13;;;11.50;99.90;;;;;;5018256;28;20022;-68
2023/10/27 00:19:02;;;;;;;23.17;10.95;;;11.40;99.90;;;;;;5017031;28;20022;-67
2023/10/27 00:21:28;;;;;;;28.98;11.55;;;11.40;99.90;;;;;;5018048;28;20026;-67
2023/10/27 00:23:53;;;;;;;54.65;19.90;;;11.40;99.90;;;;;;5017160;28;20026;-67
2023/10/27 00:26:19;;;;;;;57.72;17.63;;;11.30;99.90;;;;;;5017488;28;20108;-67
2023/10/27 00:28:46;;;;;;;37.58;14.45;;;11.40;99.90;;;;;;5017901;28;20025;-67
2023/10/27 00:31:12;;;;;;;33.83;13.50;;;11.40;99.90;;;;;;5017315;28;20028;-67
2023/10/27 00:33:37;;;;;;;28.10;12.10;;;11.40;99.90;;;;;;5017302;28;20029;-67
2023/10/27 00:36:03;;;;;;;33.03;13.48;;;11.40;99.90;;;;;;5017462;28;20080;-67
2023/10/27 00:38:30;;;;;;;36.40;14.35;;;11.50;99.90;;;;;;5016915;28;20033;-67
2023/10/27 00:40:55;;;;;;;35.40;15.30;;;11.40;99.90;;;;;;5016817;28;20113;-67
2023/10/27 00:43:21;;;;;;;42.15;14.80;;;11.50;99.90;;;;;;5017611;28;20057;-67
2023/10/27 00:45:50;;;;;;;41.25;15.13;;;11.60;99.90;;;;;;5017920;28;20025;-67
2023/10/27 00:48:17;;;;;;;44.65;15.50;;;11.60;99.90;;;;;;5017412;28;20028;-67
2023/10/27 00:50:44;;;;;;;36.58;13.57;;;11.60;99.90;;;;;;5016771;28;20072;-67
2023/10/27 00:53:11;;;;;;;38.42;14.93;;;11.60;99.90;;;;;;5016639;28;20026;-68
2023/10/27 00:55:37;;;;;;;38.22;15.20;;;11.60;99.90;;;;;;5017075;28;20101;-68
2023/10/27 00:58:04;;;;;;;34.97;13.88;;;11.50;99.90;;;;;;5016605;28;20033;-68
2023/10/27 01:00:30;;;;;;;39.65;15.52;;;11.50;99.90;;;;;;5016785;28;20049;-68
2023/10/27 01:02:55;;;;;;;40.60;15.50;;;11.50;99.90;;;;;;5016723;28;20049;-68
2023/10/27 01:05:21;;;;;;;38.17;15.95;;;11.50;99.90;;;;;;5016459;28;20030;-68
2023/10/27 01:07:46;;;;;;;39.65;14.95;;;11.60;99.90;;;;;;5016809;28;20030;-68
2023/10/27 01:10:12;;;;;;;38.90;15.90;;;11.60;99.90;;;;;;5018230;28;20032;-67
2023/10/27 01:12:38;;;;;;;35.17;15.20;;;11.70;99.90;;;;;;5016606;28;20057;-67
2023/10/27 01:15:03;;;;;;;36.70;15.68;;;11.70;99.90;;;;;;5017430;28;20026;-67
2023/10/27 01:17:29;;;;;;;41.42;17.27;;;11.80;99.90;;;;;;5016597;28;20022;-68
2023/10/27 01:19:54;;;;;;;38.78;14.25;;;11.70;99.90;;;;;;5016443;28;20022;-68
2023/10/27 01:22:20;;;;;;;37.67;14.50;;;11.70;99.90;;;;;;5016609;28;20024;-68
2023/10/27 01:24:46;;;;;;;36.97;14.75;;;11.70;99.90;;;;;;5016582;28;20033;-68
2023/10/27 01:27:12;;;;;;;57.95;18.50;;;11.70;99.90;;;;;;5016621;28;20109;-68
2023/10/27 01:29:37;;;;;;;56.60;19.15;;;11.70;99.90;;;;;;5016639;28;20057;-68
2023/10/27 01:32:03;;;;;;;42.58;16.08;;;11.60;99.90;;;;;;5017095;28;20033;-68
2023/10/27 01:34:29;;;;;;;59.28;21.08;;;11.60;99.90;;;;;;5016940;28;20091;-68
2023/10/27 01:36:54;;;;;;;54.75;17.92;;;11.50;99.90;;;;;;5017046;28;20014;-68
2023/10/27 01:39:20;;;;;;;43.83;16.85;;;11.50;99.90;;;;;;5016089;28;20030;-68
2023/10/27 01:41:45;;;;;;;39.42;15.60;;;11.60;99.90;;;;;;5016405;28;20029;-68
2023/10/27 01:44:11;;;;;;;38.00;14.70;;;11.60;99.90;;;;;;5016490;28;20042;-68
2023/10/27 01:46:36;;;;;;;35.78;13.52;;;11.60;99.90;;;;;;5016042;28;20057;-68
2023/10/27 01:49:03;;;;;;;39.70;15.23;;;11.60;99.90;;;;;;5016044;28;20037;-68
2023/10/27 01:51:28;;;;;;;37.88;14.20;;;11.60;99.90;;;;;;5016684;28;20026;-68
2023/10/27 01:53:54;;;;;;;35.17;15.50;;;11.50;99.90;;;;;;5019999;28;20125;-68
2023/10/27 01:56:19;;;;;;;33.17;12.88;;;11.50;99.90;;;;;;5020107;28;20046;-68
2023/10/27 01:58:45;;;;;;;36.00;13.63;;;11.50;99.90;;;;;;5019824;28;20046;-68
2023/10/27 02:01:14;;;;;;;41.55;14.30;;;11.50;99.90;;;;;;5019639;28;20018;-68
2023/10/27 02:03:40;;;;;;;40.45;15.57;;;11.50;99.90;;;;;;5020585;28;20022;-68
2023/10/27 02:06:05;;;;;;;48.03;17.23;;;11.50;99.90;;;;;;5020024;28;20113;-68
2023/10/27 02:08:31;;;;;;;50.53;17.65;;;11.40;99.90;;;;;;5019985;28;20126;-68
2023/10/27 02:10:57;;;;;;;41.92;15.77;;;11.40;99.90;;;;;;5019996;28;20034;-68
2023/10/27 02:13:22;;;;;;;37.88;16.98;;;11.40;99.90;;;;;;5019678;28;20084;-68
2023/10/27 02:15:48;;;;;;;31.58;12.82;;;11.40;99.90;;;;;;5020565;28;20049;-68
2023/10/27 02:21:35;;;;;;;33.58;13.30;;;11.30;99.90;;;;;;5020761;28;20101;-68
2023/10/27 02:24:02;;;;;;;31.30;11.77;;;11.30;99.90;;;;;;5019393;28;20041;-68
2023/10/27 02:26:27;;;;;;;32.40;13.23;;;11.30;99.90;;;;;;5019282;28;20030;-68
2023/10/27 02:28:53;;;;;;;32.92;12.77;;;11.20;99.90;;;;;;5019565;28;20068;-68
2023/10/27 02:31:19;;;;;;;32.55;13.05;;;11.20;99.90;;;;;;5019250;28;20044;-68
2023/10/27 02:33:44;;;;;;;31.35;12.98;;;11.20;99.90;;;;;;5019177;28;20033;-68
2023/10/27 02:36:10;;;;;;;32.15;13.05;;;11.20;99.90;;;;;;5019087;28;20125;-68
2023/10/27 02:38:35;;;;;;;32.97;13.38;;;11.10;99.90;;;;;;5018907;28;20021;-68
2023/10/27 02:41:11;;;;;;;30.95;12.27;;;11.10;99.90;;;;;;5019173;28;20115;-68
2023/10/27 02:43:38;;;;;;;28.60;12.73;;;11.10;99.90;;;;;;5019052;28;20070;-68
2023/10/27 02:46:04;;;;;;;32.20;12.40;;;11.10;99.90;;;;;;5018865;28;20054;-68
2023/10/27 02:48:30;;;;;;;35.03;11.90;;;11.10;99.90;;;;;;5020045;28;20029;-68
2023/10/27 02:50:56;;;;;;;29.50;12.40;;;11.10;99.90;;;;;;5019166;28;20036;-68
2023/10/27 02:53:22;;;;;;;32.05;13.52;;;11.10;99.90;;;;;;5019765;28;20116;-68
2023/10/27 02:55:47;;;;;;;28.05;11.80;;;11.00;99.90;;;;;;5019501;28;20117;-68
2023/10/27 02:58:13;;;;;;;28.42;11.52;;;11.00;99.90;;;;;;5019421;28;20044;-68
2023/10/27 03:00:42;;;;;;;30.75;11.88;;;11.10;99.90;;;;;;5018948;28;20116;-68
2023/10/27 03:03:09;;;;;;;29.60;11.93;;;11.10;99.90;;;;;;5018506;28;20028;-68
2023/10/27 03:05:35;;;;;;;31.08;12.60;;;11.00;99.90;;;;;;5019432;28;20068;-68
2023/10/27 03:08:01;;;;;;;33.63;13.70;;;11.00;99.90;;;;;;5018772;28;20053;-68
2023/10/27 03:10:26;;;;;;;29.98;11.57;;;10.90;99.90;;;;;;5018860;28;20065;-68
2023/10/27 03:12:52;;;;;;;28.60;11.10;;;10.90;99.90;;;;;;5018664;28;20028;-68
2023/10/27 03:15:17;;;;;;;24.38;10.57;;;10.90;99.90;;;;;;5019217;28;20095;-68
2023/10/27 03:17:43;;;;;;;31.20;11.32;;;10.90;99.90;;;;;;5018500;28;20121;-68
2023/10/27 03:20:09;;;;;;;31.25;11.07;;;10.80;99.90;;;;;;5018697;28;20033;-68
2023/10/27 03:22:35;;;;;;;25.63;10.95;;;10.90;99.90;;;;;;5018686;28;20029;-68
2023/10/27 03:25:01;;;;;;;29.60;10.75;;;10.90;99.90;;;;;;5018571;28;20033;-68
2023/10/27 03:27:27;;;;;;;30.13;11.95;;;10.90;99.90;;;;;;5018540;28;20030;-68
2023/10/27 03:29:52;;;;;;;28.75;11.68;;;10.80;99.90;;;;;;5019942;28;20029;-68
2023/10/27 03:32:18;;;;;;;28.33;10.95;;;10.80;99.90;;;;;;5018462;28;20030;-63
2023/10/27 03:34:45;;;;;;;23.40;10.35;;;10.80;99.90;;;;;;5018255;28;20022;-63
2023/10/27 03:37:14;;;;;;;20.30;9.98;;;10.80;99.90;;;;;;5018051;28;20026;-63
2023/10/27 03:39:40;;;;;;;20.33;9.52;;;10.80;99.90;;;;;;5017836;28;20060;-63
2023/10/27 03:42:07;;;;;;;27.05;10.85;;;10.90;99.90;;;;;;5018342;28;20018;-63
2023/10/27 03:44:32;;;;;;;31.55;10.48;;;10.80;99.90;;;;;;5018817;28;20021;-63
2023/10/27 03:46:58;;;;;;;20.58;8.65;;;10.80;99.90;;;;;;5018952;28;20037;-63
2023/10/27 03:49:24;;;;;;;27.73;9.45;;;10.80;99.90;;;;;;5018865;28;20025;-63
2023/10/27 03:51:50;;;;;;;27.58;10.25;;;10.70;99.90;;;;;;5017693;28;20025;-63
2023/10/27 03:54:15;;;;;;;25.17;10.25;;;10.60;99.90;;;;;;5017852;28;20029;-63
2023/10/27 03:56:41;;;;;;;16.90;7.65;;;10.60;99.90;;;;;;5017603;28;20018;-69
2023/10/27 03:59:07;;;;;;;25.23;6.82;;;10.60;99.90;;;;;;5017493;28;20093;-69
2023/10/27 04:01:32;;;;;;;13.68;6.43;;;10.50;99.90;;;;;;5018824;28;20021;-69
2023/10/27 04:03:58;;;;;;;18.00;8.52;;;10.50;99.90;;;;;;5042882;23;20046;-64
2023/10/27 04:06:23;;;;;;;21.17;8.30;;;10.50;99.90;;;;;;5018565;28;20030;-64
2023/10/27 04:08:49;;;;;;;17.10;7.55;;;10.60;99.90;;;;;;5017745;28;20105;-64
2023/10/27 04:11:15;;;;;;;13.55;7.18;;;10.60;99.90;;;;;;5018253;28;20034;-64
2023/10/27 04:13:41;;;;;;;15.85;6.80;;;10.80;99.90;;;;;;5018391;28;20036;-64
2023/10/27 04:16:06;;;;;;;17.65;7.95;;;10.90;99.90;;;;;;5016788;28;20038;-64
2023/10/27 04:18:32;;;;;;;19.52;8.10;;;10.90;99.90;;;;;;5018472;28;20108;-64
2023/10/27 04:20:57;;;;;;;17.75;7.88;;;10.80;99.90;;;;;;5017121;28;20101;-64
2023/10/27 04:23:31;;;;;;;14.43;7.13;;;10.80;99.90;;;;;;5017083;28;20049;-64
2023/10/27 04:25:56;;;;;;;21.40;8.25;;;10.90;99.90;;;;;;5018200;28;20030;-64
2023/10/27 04:28:22;;;;;;;16.48;6.75;;;10.90;99.90;;;;;;5017948;28;20048;-64
2023/10/27 04:30:48;;;;;;;23.38;8.25;;;10.90;99.90;;;;;;5017872;28;20022;-64
2023/10/27 04:33:15;;;;;;;21.38;8.50;;;10.90;99.90;;;;;;5017838;28;20104;-64
2023/10/27 04:35:42;;;;;;;18.88;7.82;;;10.90;99.90;;;;;;5016806;28;20022;-64
2023/10/27 04:38:07;;;;;;;25.63;8.48;;;10.90;99.90;;;;;;5017738;28;20025;-64
2023/10/27 04:40:34;;;;;;;20.20;9.20;;;10.80;99.90;;;;;;5016799;28;20029;-64
2023/10/27 04:43:00;;;;;;;29.08;8.98;;;10.70;99.90;;;;;;5017946;28;20076;-64
2023/10/27 04:45:26;;;;;;;27.77;9.70;;;10.60;99.90;;;;;;5017195;28;20196;-64
2023/10/27 04:47:51;;;;;;;19.25;7.15;;;10.40;99.90;;;;;;5016770;28;20045;-64
2023/10/27 04:50:17;;;;;;;19.10;7.30;;;10.50;99.90;;;;;;5017662;28;20033;-64
2023/10/27 04:52:45;;;;;;;19.80;6.82;;;10.50;99.90;;;;;;5017464;28;20030;-64
2023/10/27 04:55:10;;;;;;;18.52;7.15;;;10.60;99.90;;;;;;5017504;28;20029;-64
2023/10/27 04:57:36;;;;;;;16.85;7.50;;;10.50;99.90;;;;;;5016583;28;20022;-65
2023/10/27 05:00:04;;;;;;;19.42;7.20;;;10.50;99.90;;;;;;5017387;28;20101;-64
2023/10/27 05:02:30;;;;;;;15.25;6.97;;;10.60;99.90;;;;;;5016440;28;20022;-64
2023/10/27 05:04:55;;;;;;;18.65;7.18;;;10.60;99.90;;;;;;5017327;28;20030;-64
2023/10/27 05:07:22;;;;;;;19.95;6.88;;;10.60;99.90;;;;;;5017355;28;20026;-64
2023/10/27 05:09:47;;;;;;;18.48;7.07;;;10.60;99.90;;;;;;5017299;28;20026;-64
2023/10/27 05:12:13;;;;;;;13.98;5.65;;;10.60;99.90;;;;;;5017199;28;20082;-64
2023/10/27 05:14:39;;;;;;;14.35;6.05;;;10.50;99.90;;;;;;5016454;28;20022;-64
2023/10/27 05:17:05;;;;;;;14.60;5.70;;;10.30;99.90;;;;;;5016586;28;20022;-64
2023/10/27 05:19:32;;;;;;;17.13;6.40;;;10.30;99.90;;;;;;5016415;28;20026;-64
2023/10/27 05:21:58;;;;;;;15.48;5.85;;;10.20;99.90;;;;;;5016291;28;20084;-64
2023/10/27 05:24:23;;;;;;;17.30;6.65;;;10.20;99.90;;;;;;5016753;28;20026;-64
2023/10/27 05:26:49;;;;;;;14.32;6.50;;;10.30;99.90;;;;;;5017574;28;20026;-64
2023/10/27 05:29:15;;;;;;;12.57;6.22;;;10.30;99.90;;;;;;5021363;28;20030;-64
2023/10/27 05:31:42;;;;;;;13.57;5.82;;;10.40;99.90;;;;;;5021830;28;20034;-64
2023/10/27 05:34:08;;;;;;;15.38;6.05;;;10.50;99.90;;;;;;5021212;28;20033;-64
2023/10/27 05:36:35;;;;;;;16.80;6.97;;;10.50;99.90;;;;;;5021013;28;20029;-64
2023/10/27 05:39:00;;;;;;;12.02;6.38;;;10.60;99.90;;;;;;5021655;28;20024;-64
2023/10/27 05:41:26;;;;;;;13.60;5.60;;;10.60;99.90;;;;;;5021051;28;20018;-64
2023/10/27 05:43:54;;;;;;;9.32;4.82;;;10.60;99.90;;;;;;5021195;28;20025;-64
2023/10/27 05:46:20;;;;;;;16.40;6.55;;;10.60;99.90;;;;;;5020956;28;20037;-64
2023/10/27 05:48:46;;;;;;;15.85;6.20;;;10.60;99.90;;;;;;5021163;28;20030;-64
2023/10/27 05:51:11;;;;;;;15.38;6.38;;;10.60;99.90;;;;;;5020970;28;20101;-64
2023/10/27 05:53:37;;;;;;;18.38;7.18;;;10.60;99.90;;;;;;5019830;28;20022;-64
2023/10/27 05:56:03;;;;;;;21.15;6.00;;;10.60;99.90;;;;;;5019875;28;20028;-64
2023/10/27 05:58:32;;;;;;;14.85;6.65;;;10.50;99.90;;;;;;5019901;28;20018;-64
2023/10/27 06:00:59;;;;;;;15.50;6.82;;;10.50;99.90;;;;;;5020793;28;20090;-64
2023/10/27 06:03:25;;;;;;;17.25;6.65;;;10.60;99.90;;;;;;5020569;28;20036;-64
2023/10/27 06:05:52;;;;;;;17.15;7.20;;;10.70;99.90;;;;;;5020473;28;20034;-64
2023/10/27 06:08:21;;;;;;;14.93;6.82;;;10.70;99.90;;;;;;5020482;28;20021;-64
2023/10/27 06:10:46;;;;;;;14.43;6.70;;;10.80;99.90;;;;;;5020072;28;20022;-64
2023/10/27 06:13:13;;;;;;;19.95;6.57;;;10.90;99.90;;;;;;5019557;28;20122;-64
2023/10/27 06:15:40;;;;;;;12.75;6.82;;;11.00;99.90;;;;;;5019517;28;20112;-64
2023/10/27 06:18:05;;;;;;;15.38;6.50;;;11.00;99.90;;;;;;5019814;28;20129;-64
2023/10/27 06:20:31;;;;;;;17.02;7.03;;;11.00;99.90;;;;;;5019381;28;20018;-64
2023/10/27 06:22:56;;;;;;;19.02;7.75;;;11.00;99.90;;;;;;5019418;28;20026;-64
2023/10/27 06:25:25;;;;;;;19.52;8.82;;;10.90;99.90;;;;;;5019319;28;20026;-64
2023/10/27 06:27:52;;;;;;;18.70;8.15;;;10.90;99.90;;;;;;5019640;28;20028;-64
2023/10/27 06:30:20;;;;;;;20.92;8.20;;;10.80;99.90;;;;;;5019328;28;20136;-65
2023/10/27 06:32:46;;;;;;;39.55;10.90;;;10.90;99.90;;;;;;5020324;28;20030;-64
2023/10/27 06:35:12;;;;;;;21.60;9.68;;;11.00;99.90;;;;;;5019225;28;20025;-64
2023/10/27 06:37:37;;;;;;;24.02;9.88;;;11.00;99.90;;;;;;5018660;28;20022;-64
2023/10/27 06:40:04;;;;;;;24.15;8.95;;;11.00;99.90;;;;;;5019535;28;20022;-64
2023/10/27 06:42:30;;;;;;;20.13;8.80;;;11.00;99.90;;;;;;5019869;28;20131;-64
2023/10/27 06:44:56;;;;;;;20.67;8.52;;;11.00;99.90;;;;;;5019905;28;20049;-64
2023/10/27 06:47:22;;;;;;;17.55;7.43;;;11.10;99.90;;;;;;5018921;28;20018;-64
2023/10/27 06:49:47;;;;;;;20.85;8.82;;;11.20;99.90;;;;;;5020073;28;20015;-64
2023/10/27 06:52:13;;;;;;;19.73;8.80;;;11.10;99.90;;;;;;5019988;28;20029;-64
2023/10/27 06:54:40;;;;;;;18.15;8.63;;;11.10;99.90;;;;;;5019764;28;20014;-64
2023/10/27 06:57:07;;;;;;;20.58;8.57;;;11.10;99.90;;;;;;5019531;28;20030;-64
2023/10/27 07:00:06;;;;;;;19.15;8.30;;;11.10;99.90;;;;;;5020106;28;20151;-64
2023/10/27 07:02:32;;;;;;;17.33;8.07;;;11.00;99.90;;;;;;5019537;28;20030;-64
2023/10/27 07:04:57;;;;;;;16.85;6.82;;;11.00;99.90;;;;;;5020055;28;20022;-64
2023/10/27 07:07:23;;;;;;;16.95;7.40;;;10.90;99.90;;;;;;5019753;28;20037;-64
2023/10/27 07:09:49;;;;;;;20.52;7.22;;;11.00;99.90;;;;;;5019733;28;20025;-64
2023/10/27 07:12:14;;;;;;;19.92;8.38;;;11.00;99.90;;;;;;5019771;28;20018;-64
2023/10/27 07:14:40;;;;;;;23.00;9.70;;;11.00;99.90;;;;;;5019359;28;20029;-64
2023/10/27 07:17:05;;;;;;;17.42;7.97;;;11.10;99.90;;;;;;5019270;28;20038;-64
2023/10/27 07:19:35;;;;;;;22.73;9.65;;;11.20;99.90;;;;;;5019446;28;20026;-63
2023/10/27 07:22:01;;;;;;;18.52;7.68;;;11.10;99.90;;;;;;5019197;28;20029;-64
2023/10/27 07:24:29;;;;;;;21.80;8.55;;;11.10;99.90;;;;;;5019155;28;20022;-64
2023/10/27 07:26:55;;;;;;;18.52;8.63;;;11.10;99.90;;;;;;5018505;28;20056;-64
2023/10/27 07:29:20;;;;;;;19.65;8.57;;;11.10;99.90;;;;;;5019148;28;20026;-64
2023/10/27 07:31:46;;;;;;;15.13;7.32;;;11.10;99.90;;;;;;5017998;28;20026;-64
2023/10/27 07:34:12;;;;;;;18.75;8.38;;;11.20;99.90;;;;;;5018928;28;20057;-64
2023/10/27 07:36:37;;;;;;;21.45;9.73;;;11.10;99.90;;;;;;5018051;28;20076;-64
2023/10/27 07:39:03;;;;;;;19.33;8.85;;;11.10;99.90;;;;;;5018319;28;20085;-64
2023/10/27 07:41:29;;;;;;;22.05;8.52;;;11.10;99.90;;;;;;5019179;28;20029;-64
2023/10/27 07:43:54;;;;;;;17.77;7.65;;;11.10;99.90;;;;;;5018114;28;20022;-64
2023/10/27 07:46:20;;;;;;;17.42;8.52;;;11.10;99.90;;;;;;5018725;28;20049;-64
2023/10/27 07:48:46;;;;;;;17.75;8.15;;;11.20;99.90;;;;;;5017433;28;20034;-64
2023/10/27 07:51:11;;;;;;;15.48;8.35;;;11.20;99.90;;;;;;5018553;28;20017;-64
2023/10/27 07:53:38;;;;;;;16.83;7.65;;;11.20;99.90;;;;;;5017633;28;20046;-65
2023/10/27 07:56:04;;;;;;;18.27;8.38;;;11.30;99.90;;;;;;5018906;28;20022;-65
2023/10/27 07:58:30;;;;;;;17.70;7.53;;;11.30;99.90;;;;;;5018742;28;20088;-64
2023/10/27 08:00:55;;;;;;;16.63;7.03;;;11.30;99.90;;;;;;5018612;28;20029;-64
2023/10/27 08:03:22;;;;;;;13.13;6.18;;;11.40;99.90;;;;;;5018686;28;20030;-65
2023/10/27 08:05:55;;;;;;;16.88;7.13;;;11.50;99.90;;;;;;5017587;28;20114;-65
2023/10/27 08:08:20;;;;;;;15.88;6.72;;;11.60;99.90;;;;;;5017990;28;20056;-65
2023/10/27 08:10:47;;;;;;;14.25;5.97;;;11.80;99.90;;;;;;5017336;28;20061;-65
2023/10/27 08:13:13;;;;;;;13.38;6.30;;;11.80;99.90;;;;;;5018272;28;20022;-65
2023/10/27 08:15:38;;;;;;;14.55;6.05;;;11.90;99.90;;;;;;5018436;28;20018;-65
2023/10/27 08:18:04;;;;;;;11.57;5.10;;;12.00;99.90;;;;;;5018290;28;20033;-65
2023/10/27 08:20:30;;;;;;;9.43;5.53;;;12.00;99.90;;;;;;5018170;28;20022;-65
2023/10/27 08:22:56;;;;;;;12.93;5.88;;;11.90;99.90;;;;;;5017374;28;20032;-65
2023/10/27 08:25:22;;;;;;;12.75;6.00;;;11.90;99.90;;;;;;5018332;28;20072;-65
2023/10/27 08:27:51;;;;;;;10.98;5.68;;;11.80;99.90;;;;;;5018212;28;20026;-64
2023/10/27 08:30:17;;;;;;;19.08;7.00;;;11.70;99.90;;;;;;5018316;28;20033;-65
2023/10/27 08:32:42;;;;;;;15.40;6.07;;;11.70;99.90;;;;;;5018408;28;20037;-64
2023/10/27 08:35:08;;;;;;;12.15;5.75;;;11.70;99.90;;;;;;5017026;28;20034;-65
2023/10/27 08:37:35;;;;;;;20.88;6.38;;;11.70;99.90;;;;;;5018563;28;20046;-64
2023/10/27 08:40:02;;;;;;;16.77;6.75;;;11.70;99.90;;;;;;5016839;28;20021;-64
2023/10/27 08:42:32;;;;;;;10.80;5.25;;;11.70;99.90;;;;;;5018039;28;20018;-64
2023/10/27 08:44:58;;;;;;;12.73;5.35;;;11.80;99.90;;;;;;5016808;28;20022;-64
2023/10/27 08:47:25;;;;;;;13.18;6.05;;;12.00;99.90;;;;;;5017649;28;20045;-65
2023/10/27 08:49:51;;;;;;;14.65;5.80;;;12.00;99.90;;;;;;5017599;28;20049;-63
2023/10/27 08:52:17;;;;;;;9.50;5.18;;;11.90;99.90;;;;;;5017548;28;20025;-65
2023/10/27 08:54:42;;;;;;;10.95;5.38;;;11.90;99.90;;;;;;5017148;28;20025;-65
2023/10/27 08:57:08;;;;;;;14.35;6.68;;;11.80;99.90;;;;;;5017285;28;20030;-65
2023/10/27 08:59:35;;;;;;;12.70;6.15;;;11.80;99.90;;;;;;5016579;28;20030;-66
2023/10/27 09:02:01;;;;;;;13.85;5.60;;;11.80;99.90;;;;;;5017683;28;20049;-65
2023/10/27 09:04:27;;;;;;;14.82;6.30;;;11.80;99.90;;;;;;5016372;28;20045;-65
2023/10/27 09:06:53;;;;;;;17.25;6.40;;;11.70;99.90;;;;;;5016624;28;20025;-65
2023/10/27 09:09:19;;;;;;;9.93;4.88;;;11.80;99.90;;;;;;5016398;28;20057;-66
2023/10/27 09:11:47;;;;;;;10.57;5.43;;;11.70;99.90;;;;;;5016428;28;20026;-65
2023/10/27 09:14:30;;;;;;;15.73;6.15;;;11.80;99.90;;;;;;5016301;28;20025;-65
2023/10/27 09:17:15;;;;;;;11.90;4.78;;;11.80;99.90;;;;;;5017179;28;20022;-66
2023/10/27 09:19:43;;;;;;;9.82;4.78;;;11.70;99.90;;;;;;5017669;28;20022;-65
2023/10/27 09:22:16;;;;;;;12.10;5.88;;;11.60;99.90;;;;;;5017233;28;20033;-65
2023/10/27 09:24:42;;;;;;;8.15;4.75;;;11.50;99.90;;;;;;5016780;28;20029;-65
2023/10/27 09:27:08;;;;;;;9.38;4.72;;;11.60;99.90;;;;;;5016282;28;20026;-64
2023/10/27 09:29:40;;;;;;;10.73;5.25;;;11.80;99.90;;;;;;5017265;28;20022;-65
2023/10/27 09:32:23;;;;;;;9.25;4.40;;;11.70;99.90;;;;;;5017105;28;20029;-65
2023/10/27 09:35:09;;;;;;;10.77;5.60;;;11.70;99.90;;;;;;5015981;28;20041;-65
2023/10/27 09:37:42;;;;;;;11.65;5.68;;;11.80;99.90;;;;;;5012648;28;20034;-65
2023/10/27 09:40:09;;;;;;;8.15;4.53;;;11.80;99.90;;;;;;4996493;28;20022;-65
2023/10/27 09:42:37;;;;;;;9.25;5.15;;;11.90;99.90;;;;;;4997455;28;20077;-65
2023/10/27 09:45:08;;;;;;;9.90;4.90;;;11.90;99.90;;;;;;4997453;28;20025;-65
2023/10/27 09:47:39;;;;;;;11.50;4.95;;;11.80;99.90;;;;;;4996690;28;20018;-65
2023/10/27 09:50:09;;;;;;;11.68;5.10;;;11.70;99.90;;;;;;4997647;28;20076;-65
2023/10/27 09:52:35;;;;;;;9.43;4.30;;;11.60;99.90;;;;;;4997317;28;20026;-65
2023/10/27 09:55:05;;;;;;;9.77;4.25;;;11.70;99.90;;;;;;4997320;28;20018;-65
2023/10/27 09:57:32;;;;;;;6.38;3.42;;;11.60;99.90;;;;;;4997549;28;20025;-65
2023/10/27 10:00:00;;;;;;;8.38;3.95;;;11.70;99.90;;;;;;4997368;28;20029;-65
2023/10/27 10:02:28;;;;;;;4.43;3.30;;;11.90;99.90;;;;;;4996485;28;20031;-65
2023/10/27 10:05:00;;;;;;;7.28;3.42;;;12.00;99.90;;;;;;4998072;28;20037;-64
2023/10/27 10:07:34;;;;;;;6.88;3.03;;;12.10;99.90;;;;;;4996326;28;20026;-64
2023/10/27 10:10:26;;;;;;;10.95;4.65;;;12.20;99.90;;;;;;4997117;28;20106;-64
2023/10/27 10:13:12;;;;;;;7.15;3.88;;;12.30;99.90;;;;;;4998326;28;20077;-64
2023/10/27 10:15:42;;;;;;;6.55;2.97;;;12.30;99.90;;;;;;5001325;28;20033;-64
2023/10/27 10:18:32;;;;;;;7.13;2.92;;;12.40;99.90;;;;;;4999955;28;20065;-64
2023/10/27 10:20:58;;;;;;;7.20;3.00;;;12.50;99.90;;;;;;4992660;28;20061;-64
2023/10/27 10:23:46;;;;;;;7.07;3.58;;;12.40;99.90;;;;;;5000632;28;20104;-64
2023/10/27 10:26:12;;;;;;;5.07;2.72;;;12.40;99.90;;;;;;5000702;28;20033;-64
2023/10/27 10:28:39;;;;;;;4.78;3.00;;;12.50;99.90;;;;;;4999861;28;20019;-65
2023/10/27 10:31:07;;;;;;;8.15;2.70;;;12.50;99.90;;;;;;5000585;28;20050;-64
2023/10/27 10:33:34;;;;;;;3.92;2.05;;;12.70;99.90;;;;;;5000483;28;20034;-64
2023/10/27 10:36:14;;;;;;;5.60;2.58;;;12.70;99.90;;;;;;4999496;28;20031;-64
2023/10/27 10:38:43;;;;;;;3.42;2.25;;;12.80;99.90;;;;;;4999518;28;20054;-64
2023/10/27 10:41:08;;;;;;;2.83;2.05;;;12.80;99.90;;;;;;5000266;28;20022;-64
2023/10/27 10:43:34;;;;;;;3.25;2.05;;;12.70;99.90;;;;;;4999375;28;20046;-64
2023/10/27 10:46:10;;;;;;;3.95;2.15;;;12.80;99.90;;;;;;5000865;28;20022;-64
2023/10/27 10:48:40;;;;;;;4.85;2.28;;;12.70;99.90;;;;;;4999307;28;20220;-64
2023/10/27 10:51:15;;;;;;;4.53;2.78;;;12.80;99.90;;;;;;5000409;28;20121;-65
2023/10/27 10:53:41;;;;;;;3.00;1.40;;;12.80;99.90;;;;;;4999747;28;20029;-64
2023/10/27 10:56:07;;;;;;;4.15;1.42;;;12.70;99.90;;;;;;5000199;28;20023;-65
2023/10/27 10:58:37;;;;;;;1.83;1.38;;;12.70;99.90;;;;;;4999213;28;20029;-64
2023/10/27 11:01:03;;;;;;;4.45;1.27;;;12.80;99.90;;;;;;5000168;28;20110;-64
2023/10/27 11:03:31;;;;;;;2.45;1.27;;;12.80;99.90;;;;;;4998869;28;20030;-64
2023/10/27 11:05:59;;;;;;;1.77;1.10;;;12.80;99.90;;;;;;4999910;28;20186;-64
2023/10/27 11:08:34;;;;;;;1.70;0.95;;;12.80;99.90;;;;;;4999031;28;20057;-64
2023/10/27 11:11:02;;;;;;;0.50;0.50;;;12.70;99.90;;;;;;5000224;28;20049;-64
2023/10/27 11:13:28;;;;;;;1.27;0.88;;;12.60;99.90;;;;;;4999807;28;20026;-64
2023/10/27 11:15:54;;;;;;;1.17;0.60;;;12.60;99.90;;;;;;4999718;28;20026;-64
2023/10/27 11:18:20;;;;;;;3.55;1.23;;;12.60;99.90;;;;;;4998782;28;20086;-64
2023/10/27 11:20:47;;;;;;;0.73;0.73;;;12.60;99.90;;;;;;4998783;28;20049;-64
2023/10/27 11:23:17;;;;;;;1.27;0.57;;;12.70;99.90;;;;;;4999474;28;20022;-64
2023/10/27 11:25:43;;;;;;;1.85;0.70;;;12.80;99.90;;;;;;4998791;28;20029;-64
2023/10/27 11:28:29;;;;;;;2.28;0.93;;;12.80;99.90;;;;;;4999735;28;20033;-64
2023/10/27 11:31:12;;;;;;;1.25;1.10;;;12.80;99.90;;;;;;4999525;28;20033;-64
2023/10/27 11:34:04;;;;;;;1.67;1.10;;;12.80;99.90;;;;;;4999711;28;20033;-64
2023/10/27 11:36:34;;;;;;;4.30;1.40;;;12.80;99.90;;;;;;4998460;28;20069;-64
2023/10/27 11:39:20;;;;;;;3.40;1.25;;;12.80;99.90;;;;;;4999505;28;20026;-64
2023/10/27 11:41:59;;;;;;;3.05;1.38;;;12.70;99.90;;;;;;4998300;28;20124;-64
2023/10/27 11:44:25;;;;;;;3.38;1.20;;;12.60;99.90;;;;;;4999515;28;20025;-64
2023/10/27 11:47:01;;;;;;;2.00;1.08;;;12.60;99.90;;;;;;4999165;28;20023;-64
2023/10/27 11:49:28;;;;;;;2.75;1.13;;;12.60;99.90;;;;;;4999366;28;20034;-64
2023/10/27 11:51:55;;;;;;;2.28;1.30;;;12.70;99.90;;;;;;4999304;28;20046;-64
2023/10/27 11:54:23;;;;;;;2.83;1.23;;;12.80;99.90;;;;;;4999209;28;20026;-64
2023/10/27 11:56:48;;;;;;;1.85;0.70;;;12.80;99.90;;;;;;4998980;28;20057;-64
2023/10/27 11:59:16;;;;;;;2.60;1.02;;;12.90;99.90;;;;;;4998834;28;20021;-63
2023/10/27 12:01:42;;;;;;;1.83;1.10;;;13.00;99.90;;;;;;4998971;28;20073;-64
2023/10/27 12:04:09;;;;;;;4.38;0.77;;;13.00;99.90;;;;;;4998533;28;20042;-64
2023/10/27 12:06:35;;;;;;;1.88;0.70;;;13.20;99.90;;;;;;4998808;28;20109;-64
2023/10/27 12:09:01;;;;;;;1.40;1.20;;;13.30;99.90;;;;;;5000243;28;20065;-65
2023/10/27 12:11:29;;;;;;;4.45;1.00;;;13.40;99.90;;;;;;5018330;28;20030;-64
2023/10/27 12:13:55;;;;;;;3.00;0.80;;;13.60;99.90;;;;;;5017314;28;20133;-64
2023/10/27 12:16:22;;;;;;;2.08;0.60;;;13.70;99.90;;;;;;5018468;28;20119;-64
2023/10/27 12:18:48;;;;;;;3.03;0.63;;;13.70;99.90;;;;;;5018456;28;20125;-64
2023/10/27 12:21:14;;;;;;;1.58;0.70;;;13.90;99.90;;;;;;5018487;28;20106;-64
2023/10/27 12:23:39;;;;;;;0.90;0.60;;;13.90;99.90;;;;;;5018241;28;20030;-65
2023/10/27 12:26:07;;;;;;;0.90;0.52;;;14.00;99.90;;;;;;5017638;28;20025;-64
2023/10/27 12:28:33;;;;;;;1.40;0.80;;;13.90;99.90;;;;;;5017127;28;20026;-64
2023/10/27 12:30:59;;;;;;;3.33;1.00;;;13.90;99.90;;;;;;5016980;28;20030;-64
2023/10/27 12:33:25;;;;;;;0.80;0.63;;;13.80;99.90;;;;;;5018515;28;20033;-64
2023/10/27 12:35:51;;;;;;;1.10;0.70;;;13.80;99.90;;;;;;5016886;28;20033;-64
2023/10/27 12:38:18;;;;;;;1.70;1.08;;;13.80;99.90;;;;;;5017843;28;20018;-64
2023/10/27 12:40:48;;;;;;;2.28;0.85;;;13.80;99.90;;;;;;5016999;28;20045;-64